Time;durP1;ratioP1;P1;durP2;ratioP2;P2;SDS_P1;SDS_P2;PMS_P1;PMS_P2;Temp;Humidity;BMP_temperature;BMP_pressure;BME280_temperature;BME280_humidity;BME280_pressure;Samples;Min_cycle;Max_cycle;Signal;HPM_P1;HPM_P2
2023/08/23 00:01:55;;;;;;;10.30;5.00;;;18.40;99.90;;;;;;5094596;27;20043;-79
2023/08/23 00:04:22;;;;;;;10.95;6.80;;;18.40;99.90;;;;;;5092011;27;20632;-79
2023/08/23 00:06:48;;;;;;;10.70;6.25;;;18.40;99.90;;;;;;5078289;27;20107;-80
2023/08/23 00:09:16;;;;;;;9.98;6.80;;;18.40;99.90;;;;;;5078983;27;20065;-80
2023/08/23 00:11:42;;;;;;;10.20;5.75;;;18.30;99.90;;;;;;5094412;27;20124;-80
2023/08/23 00:14:08;;;;;;;10.15;6.03;;;18.30;99.90;;;;;;5077472;27;20050;-80
2023/08/23 00:16:34;;;;;;;10.70;5.97;;;18.30;99.90;;;;;;5079265;27;20039;-79
2023/08/23 00:19:00;;;;;;;7.25;5.45;;;18.30;99.90;;;;;;5079062;27;20453;-80
2023/08/23 00:21:27;;;;;;;10.18;5.65;;;18.30;99.90;;;;;;5092503;27;20075;-79
2023/08/23 00:23:53;;;;;;;8.07;6.00;;;18.30;99.90;;;;;;5091506;27;20056;-79
2023/08/23 00:26:19;;;;;;;8.57;5.28;;;18.30;99.90;;;;;;5083748;27;20039;-80
2023/08/23 00:28:45;;;;;;;9.10;5.32;;;18.20;99.90;;;;;;5094833;27;20078;-79
2023/08/23 00:31:11;;;;;;;9.80;5.20;;;18.20;99.90;;;;;;5065238;27;20532;-80
2023/08/23 00:33:37;;;;;;;7.95;4.50;;;18.20;99.90;;;;;;5075464;27;20054;-79
2023/08/23 00:36:03;;;;;;;9.20;4.80;;;18.20;99.90;;;;;;5077321;27;20042;-78
2023/08/23 00:38:28;;;;;;;8.70;4.63;;;18.20;99.90;;;;;;5062029;27;20043;-79
2023/08/23 00:40:54;;;;;;;7.38;4.78;;;18.20;99.90;;;;;;5091137;27;20051;-78
2023/08/23 00:43:20;;;;;;;7.82;4.32;;;18.20;99.90;;;;;;5088751;27;20094;-80
2023/08/23 00:45:45;;;;;;;6.63;4.22;;;18.20;99.90;;;;;;5081814;27;20495;-80
2023/08/23 00:48:12;;;;;;;10.25;4.88;;;18.20;99.90;;;;;;5099477;27;20138;-79
2023/08/23 00:50:40;;;;;;;7.63;4.80;;;18.20;99.90;;;;;;5093683;27;20479;-79
2023/08/23 00:53:07;;;;;;;8.77;5.15;;;18.20;99.90;;;;;;5092106;27;20050;-81
2023/08/23 00:55:35;;;;;;;8.18;5.28;;;18.30;99.90;;;;;;5082377;27;20032;-80
2023/08/23 00:58:01;;;;;;;7.85;4.70;;;18.20;99.90;;;;;;5065314;28;20039;-79
2023/08/23 01:00:30;;;;;;;8.32;5.53;;;18.30;99.90;;;;;;5093910;27;20090;-79
2023/08/23 01:02:56;;;;;;;8.27;5.45;;;18.30;99.90;;;;;;5098849;27;20043;-80
2023/08/23 01:05:40;;;;;;;8.10;4.95;;;18.30;99.90;;;;;;5091155;27;20043;-80
2023/08/23 01:08:28;;;;;;;8.93;6.43;;;18.30;99.90;;;;;;5080070;27;20046;-80
2023/08/23 01:11:26;;;;;;;11.95;7.03;;;18.30;99.90;;;;;;5092108;27;20095;-80
2023/08/23 01:14:11;;;;;;;8.70;7.20;;;18.30;99.90;;;;;;5068533;27;20140;-79
2023/08/23 01:16:38;;;;;;;9.50;6.75;;;18.20;99.90;;;;;;5092883;27;20557;-79
2023/08/23 01:19:36;;;;;;;11.35;7.60;;;18.10;99.90;;;;;;5080827;27;20075;-79
2023/08/23 01:22:05;;;;;;;10.93;6.65;;;18.00;99.90;;;;;;5093583;27;20585;-79
2023/08/23 01:24:31;;;;;;;10.65;6.93;;;18.00;99.90;;;;;;5096464;27;20038;-80
2023/08/23 01:26:57;;;;;;;9.45;7.30;;;17.90;99.90;;;;;;5083192;27;20267;-79
2023/08/23 01:29:23;;;;;;;8.93;7.20;;;17.90;99.90;;;;;;5085222;27;20043;-80
2023/08/23 01:31:53;;;;;;;10.27;6.78;;;17.80;99.90;;;;;;5095018;27;20036;-80
2023/08/23 01:34:35;;;;;;;9.60;6.95;;;17.80;99.90;;;;;;5096230;27;20044;-80
2023/08/23 01:37:05;;;;;;;11.25;7.18;;;17.80;99.90;;;;;;5099297;27;20100;-80
2023/08/23 01:39:32;;;;;;;8.80;6.97;;;17.70;99.90;;;;;;5084181;27;20032;-80
2023/08/23 01:41:59;;;;;;;9.45;6.80;;;17.70;99.90;;;;;;5079399;27;20055;-79
2023/08/23 01:44:25;;;;;;;11.25;6.72;;;17.60;99.90;;;;;;5084013;27;21415;-80
2023/08/23 01:46:51;;;;;;;10.38;6.97;;;17.60;99.90;;;;;;5093025;27;20125;-80
2023/08/23 01:49:17;;;;;;;10.55;7.22;;;17.60;99.90;;;;;;5079762;27;20046;-79
2023/08/23 01:51:42;;;;;;;10.43;7.47;;;17.60;99.90;;;;;;5095660;27;20127;-80
2023/08/23 01:54:08;;;;;;;10.15;6.80;;;17.60;99.90;;;;;;5102094;27;20397;-79
2023/08/23 01:56:34;;;;;;;11.32;7.70;;;17.60;99.90;;;;;;5076823;27;20172;-80
2023/08/23 01:59:01;;;;;;;10.90;7.15;;;17.70;99.90;;;;;;5079995;27;20406;-80
2023/08/23 02:01:27;;;;;;;10.73;7.40;;;17.70;99.90;;;;;;5095089;27;20055;-79
2023/08/23 02:03:54;;;;;;;8.98;7.00;;;17.70;99.90;;;;;;5077716;27;22831;-80
2023/08/23 02:06:20;;;;;;;9.40;7.40;;;17.70;99.90;;;;;;5095580;27;20051;-80
2023/08/23 02:08:46;;;;;;;8.73;7.18;;;17.70;99.90;;;;;;5066539;27;20047;-80
2023/08/23 02:11:11;;;;;;;9.98;7.57;;;17.70;99.90;;;;;;5095442;27;20051;-80
2023/08/23 02:13:37;;;;;;;10.48;6.95;;;17.70;99.90;;;;;;5063778;27;20476;-80
2023/08/23 02:16:03;;;;;;;9.68;7.40;;;17.70;99.90;;;;;;5112488;27;20118;-79
2023/08/23 02:18:29;;;;;;;10.43;7.40;;;17.70;99.90;;;;;;5080160;27;20138;-80
2023/08/23 02:20:57;;;;;;;9.15;7.30;;;17.70;99.90;;;;;;5076536;27;20085;-80
2023/08/23 02:23:23;;;;;;;10.13;7.65;;;17.70;99.90;;;;;;5094495;27;20533;-80
2023/08/23 02:25:50;;;;;;;9.00;7.57;;;17.70;99.90;;;;;;5093736;27;20051;-79
2023/08/23 02:28:16;;;;;;;9.02;7.28;;;17.70;99.90;;;;;;5076986;27;20504;-80
2023/08/23 02:30:42;;;;;;;10.00;7.80;;;17.70;99.90;;;;;;5084944;27;20043;-79
2023/08/23 02:33:08;;;;;;;11.43;7.65;;;17.60;99.90;;;;;;5076112;27;20483;-80
2023/08/23 02:35:34;;;;;;;9.55;7.07;;;17.70;99.90;;;;;;5112319;27;20431;-80
2023/08/23 02:38:01;;;;;;;9.98;8.23;;;17.70;99.90;;;;;;5093548;27;20892;-81
2023/08/23 02:40:27;;;;;;;12.25;8.40;;;17.70;99.90;;;;;;5092486;27;20050;-80
2023/08/23 02:42:55;;;;;;;11.15;8.30;;;17.50;99.90;;;;;;5066041;27;20043;-80
2023/08/23 02:45:21;;;;;;;12.20;9.52;;;17.80;99.90;;;;;;5094102;27;20046;-79
2023/08/23 02:47:47;;;;;;;10.35;7.85;;;17.80;99.90;;;;;;5094146;27;20051;-79
2023/08/23 02:50:13;;;;;;;10.15;8.68;;;17.80;99.90;;;;;;5078265;27;20043;-79
2023/08/23 02:52:39;;;;;;;11.93;8.10;;;17.80;99.90;;;;;;5076022;27;20425;-80
2023/08/23 02:55:05;;;;;;;11.38;8.00;;;17.80;99.90;;;;;;5085323;27;20612;-80
2023/08/23 02:57:30;;;;;;;13.80;8.88;;;17.80;99.90;;;;;;5093362;27;20075;-79
2023/08/23 02:59:56;;;;;;;12.63;9.07;;;17.80;99.90;;;;;;5075784;27;20812;-79
2023/08/23 03:02:22;;;;;;;10.57;8.65;;;17.80;99.90;;;;;;5066027;27;20096;-79
2023/08/23 03:04:47;;;;;;;12.85;8.82;;;17.80;99.90;;;;;;5080739;27;20051;-79
2023/08/23 03:07:13;;;;;;;9.93;7.70;;;17.80;99.90;;;;;;5092001;27;20035;-80
2023/08/23 03:09:39;;;;;;;13.60;8.80;;;17.90;99.90;;;;;;5089132;27;20039;-80
2023/08/23 03:12:05;;;;;;;10.65;7.95;;;17.80;99.90;;;;;;5081256;27;20081;-80
2023/08/23 03:14:31;;;;;;;14.32;8.48;;;17.80;99.90;;;;;;5076676;27;20067;-80
2023/08/23 03:16:57;;;;;;;13.30;8.65;;;17.80;99.90;;;;;;5062224;27;20126;-79
2023/08/23 03:19:22;;;;;;;10.55;8.38;;;17.80;99.90;;;;;;5092452;27;20039;-80
2023/08/23 03:21:48;;;;;;;11.77;8.77;;;17.80;99.90;;;;;;5078409;27;20892;-79
2023/08/23 03:24:14;;;;;;;11.55;8.00;;;17.90;99.90;;;;;;5098942;27;21318;-79
2023/08/23 03:26:40;;;;;;;12.07;7.85;;;17.80;99.90;;;;;;5092115;27;20044;-80
2023/08/23 03:29:05;;;;;;;10.35;7.05;;;17.90;99.90;;;;;;5092282;27;20147;-80
2023/08/23 03:31:31;;;;;;;9.90;5.70;;;17.90;99.90;;;;;;5077961;27;20130;-79
2023/08/23 03:33:57;;;;;;;9.57;5.70;;;18.00;99.90;;;;;;5094057;27;20071;-80
2023/08/23 03:36:23;;;;;;;10.60;6.05;;;18.00;99.90;;;;;;5109420;27;20075;-80
2023/08/23 03:38:49;;;;;;;9.18;4.90;;;18.10;99.90;;;;;;5075567;27;20048;-79
2023/08/23 03:41:16;;;;;;;7.85;4.68;;;18.20;99.90;;;;;;5064120;27;20629;-80
2023/08/23 03:43:42;;;;;;;6.63;4.90;;;18.20;99.90;;;;;;5092485;27;20053;-80
2023/08/23 03:46:08;;;;;;;7.20;5.00;;;18.30;99.90;;;;;;5090603;27;20043;-79
2023/08/23 03:48:33;;;;;;;8.15;4.88;;;18.30;99.90;;;;;;5072192;27;20490;-80
2023/08/23 03:50:59;;;;;;;9.32;4.85;;;18.30;99.90;;;;;;5090050;27;20400;-80
2023/08/23 03:53:26;;;;;;;8.35;4.20;;;18.30;99.90;;;;;;5077767;27;20672;-80
2023/08/23 03:55:53;;;;;;;7.15;4.72;;;18.30;99.90;;;;;;5092454;27;20053;-80
2023/08/23 03:58:20;;;;;;;8.05;4.50;;;18.30;99.90;;;;;;5088731;27;20162;-80
2023/08/23 04:00:52;;;;;;;8.10;4.13;;;18.40;99.90;;;;;;5090565;27;20499;-79
2023/08/23 04:03:18;;;;;;;9.68;5.13;;;18.40;99.90;;;;;;5094193;27;20039;-79
2023/08/23 04:05:44;;;;;;;10.23;4.57;;;18.40;99.90;;;;;;5092222;27;20043;-79
2023/08/23 04:08:10;;;;;;;7.22;4.32;;;18.40;99.90;;;;;;5058372;27;20405;-79
2023/08/23 04:10:39;;;;;;;6.40;4.00;;;18.50;99.90;;;;;;5089799;27;20134;-79
2023/08/23 04:13:05;;;;;;;7.20;4.50;;;18.50;99.90;;;;;;5066561;27;20059;-80
2023/08/23 04:15:31;;;;;;;8.85;4.70;;;18.50;99.90;;;;;;5076193;27;21596;-80
2023/08/23 04:17:56;;;;;;;8.80;4.70;;;18.50;99.90;;;;;;5075694;27;20047;-79
2023/08/23 04:20:23;;;;;;;10.60;5.00;;;18.50;99.90;;;;;;5081802;27;20046;-80
2023/08/23 04:22:48;;;;;;;7.95;4.85;;;18.50;99.90;;;;;;5110948;27;20259;-80
2023/08/23 04:25:14;;;;;;;7.75;4.80;;;18.50;99.90;;;;;;5062395;27;20047;-80
2023/08/23 04:27:40;;;;;;;9.88;5.22;;;18.50;99.90;;;;;;5076823;27;20466;-80
2023/08/23 04:30:06;;;;;;;7.82;5.10;;;18.50;99.90;;;;;;5112180;27;20048;-80
2023/08/23 04:32:32;;;;;;;9.55;5.68;;;18.50;99.90;;;;;;5063319;27;20059;-80
2023/08/23 04:34:58;;;;;;;13.02;6.63;;;18.50;99.90;;;;;;5091937;27;20096;-80
2023/08/23 04:37:24;;;;;;;9.85;5.85;;;18.50;99.90;;;;;;5063250;27;20439;-80
2023/08/23 04:39:50;;;;;;;11.07;5.90;;;18.60;99.90;;;;;;5076788;27;20057;-80
2023/08/23 04:42:16;;;;;;;12.77;6.90;;;18.60;99.90;;;;;;5078653;27;20077;-79
2023/08/23 04:44:42;;;;;;;9.85;6.18;;;18.60;99.90;;;;;;5080756;27;20102;-79
2023/08/23 04:47:07;;;;;;;12.13;6.70;;;18.70;99.90;;;;;;5093188;28;20059;-79
2023/08/23 04:49:33;;;;;;;14.70;6.72;;;18.70;99.90;;;;;;5093539;28;20043;-80
2023/08/23 04:51:59;;;;;;;15.00;6.97;;;18.80;99.90;;;;;;5091958;27;20409;-80
2023/08/23 04:54:24;;;;;;;13.63;7.70;;;18.80;99.90;;;;;;5067378;27;20043;-75
2023/08/23 04:56:50;;;;;;;13.93;8.38;;;18.80;99.90;;;;;;5067589;27;20047;-77
2023/08/23 04:59:16;;;;;;;13.13;8.63;;;18.90;99.90;;;;;;5101059;27;20043;-77
2023/08/23 05:01:42;;;;;;;17.02;9.77;;;18.90;99.90;;;;;;5089077;27;20366;-77
2023/08/23 05:04:08;;;;;;;18.20;9.70;;;19.00;99.90;;;;;;5087232;27;20154;-77
2023/08/23 05:06:34;;;;;;;16.13;10.45;;;19.00;99.90;;;;;;5092740;27;20104;-77
2023/08/23 05:09:00;;;;;;;15.65;9.50;;;19.00;99.90;;;;;;5074815;27;20031;-77
2023/08/23 05:11:26;;;;;;;19.10;10.10;;;19.00;99.90;;;;;;5100289;27;20051;-79
2023/08/23 05:13:52;;;;;;;18.83;9.68;;;19.00;99.90;;;;;;5104705;27;20047;-78
2023/08/23 05:16:18;;;;;;;19.25;9.95;;;19.00;99.90;;;;;;5101979;27;20050;-78
2023/08/23 05:18:45;;;;;;;17.65;10.20;;;19.00;99.90;;;;;;5100608;27;20396;-79
2023/08/23 05:21:10;;;;;;;19.95;10.02;;;19.00;99.90;;;;;;5086557;27;20035;-79
2023/08/23 05:23:36;;;;;;;17.10;10.63;;;19.00;99.90;;;;;;5085259;27;20074;-78
2023/08/23 05:26:02;;;;;;;14.90;8.68;;;19.10;99.90;;;;;;5087606;27;20082;-78
2023/08/23 05:28:28;;;;;;;16.55;9.98;;;19.10;99.90;;;;;;5101851;27;20035;-79
2023/08/23 05:30:54;;;;;;;15.35;9.25;;;19.20;99.90;;;;;;5103170;27;20043;-80
2023/08/23 05:33:20;;;;;;;20.52;10.90;;;19.20;99.90;;;;;;5105528;27;20043;-79
2023/08/23 05:35:46;;;;;;;15.32;9.15;;;19.20;99.90;;;;;;5108816;27;20135;-80
2023/08/23 05:38:12;;;;;;;14.85;9.15;;;19.30;99.90;;;;;;5103301;27;20402;-79
2023/08/23 05:40:39;;;;;;;15.50;9.38;;;19.30;99.90;;;;;;5093457;27;20043;-80
2023/08/23 05:43:06;;;;;;;18.40;9.93;;;19.40;99.90;;;;;;5104130;27;20047;-78
2023/08/23 05:45:31;;;;;;;15.85;9.65;;;19.50;99.90;;;;;;5105192;27;20043;-78
2023/08/23 05:47:59;;;;;;;18.80;9.23;;;19.50;99.90;;;;;;5089780;27;20050;-78
2023/08/23 05:50:25;;;;;;;18.00;9.38;;;19.60;99.90;;;;;;5084768;27;20134;-76
2023/08/23 05:52:51;;;;;;;12.82;7.97;;;19.60;99.90;;;;;;5096836;27;20266;-81
2023/08/23 05:55:18;;;;;;;18.10;9.00;;;19.60;99.90;;;;;;5102198;27;20035;-79
2023/08/23 05:57:43;;;;;;;18.00;8.50;;;19.60;99.90;;;;;;5086803;27;20050;-81
2023/08/23 06:00:10;;;;;;;14.55;8.18;;;19.60;99.90;;;;;;5100748;27;20043;-81
2023/08/23 06:02:36;;;;;;;16.10;8.45;;;19.60;99.90;;;;;;5105869;27;20046;-83
2023/08/23 06:05:03;;;;;;;13.40;7.45;;;19.60;99.90;;;;;;5099203;27;20039;-82
2023/08/23 06:07:29;;;;;;;18.20;7.80;;;19.70;99.90;;;;;;5099761;27;20070;-88
2023/08/23 06:09:55;;;;;;;15.38;7.47;;;19.70;99.90;;;;;;5099728;27;20139;-77
2023/08/23 06:12:25;;;;;;;15.32;8.82;;;19.80;99.90;;;;;;5079981;27;20052;-76
2023/08/23 06:14:51;;;;;;;16.92;9.45;;;19.80;99.90;;;;;;5097637;27;20043;-79
2023/08/23 06:17:17;;;;;;;16.17;8.85;;;19.80;99.90;;;;;;5081600;27;20047;-81
2023/08/23 06:19:45;;;;;;;14.32;9.07;;;19.90;99.90;;;;;;5100610;27;20066;-78
2023/08/23 06:22:13;;;;;;;15.13;8.75;;;19.90;99.90;;;;;;5117402;27;20047;-77
2023/08/23 06:24:39;;;;;;;18.90;10.38;;;20.00;99.90;;;;;;5099115;27;21476;-77
2023/08/23 06:27:05;;;;;;;17.42;9.90;;;20.00;99.90;;;;;;5090848;27;20047;-77
2023/08/23 06:29:31;;;;;;;17.27;9.23;;;19.90;99.90;;;;;;5088060;27;20044;-77
2023/08/23 06:31:56;;;;;;;14.57;8.52;;;20.10;99.90;;;;;;5099027;27;20043;-77
2023/08/23 06:34:22;;;;;;;18.23;8.48;;;20.10;99.90;;;;;;5085517;27;20048;-77
2023/08/23 06:36:48;;;;;;;13.85;7.45;;;20.10;99.90;;;;;;5098584;27;20535;-77
2023/08/23 06:39:14;;;;;;;10.73;6.68;;;20.20;99.90;;;;;;5083528;27;20039;-77
2023/08/23 06:41:40;;;;;;;15.05;6.93;;;20.20;99.90;;;;;;5086865;27;20047;-76
2023/08/23 06:44:05;;;;;;;15.60;8.30;;;20.20;99.90;;;;;;5068702;27;20567;-77
2023/08/23 06:46:31;;;;;;;17.23;8.10;;;20.30;99.90;;;;;;5098699;27;20047;-77
2023/08/23 06:48:57;;;;;;;15.90;7.20;;;20.30;99.90;;;;;;5090591;27;20511;-77
2023/08/23 06:51:23;;;;;;;17.02;8.00;;;20.40;99.90;;;;;;5072718;27;20057;-80
2023/08/23 06:53:51;;;;;;;14.40;7.20;;;20.40;99.90;;;;;;5103264;27;20047;-79
2023/08/23 06:56:16;;;;;;;15.52;7.15;;;20.40;99.90;;;;;;5095034;27;20047;-79
2023/08/23 06:58:42;;;;;;;13.27;6.93;;;20.50;99.90;;;;;;5099601;27;20130;-79
2023/08/23 07:01:14;;;;;;;16.52;7.90;;;20.50;99.90;;;;;;5089296;27;20534;-80
2023/08/23 07:03:44;;;;;;;15.10;7.82;;;20.60;99.90;;;;;;5086715;27;20450;-79
2023/08/23 07:06:14;;;;;;;16.48;7.50;;;20.60;99.90;;;;;;5088768;27;20330;-79
2023/08/23 07:08:41;;;;;;;11.68;7.28;;;20.70;99.90;;;;;;5070497;27;20050;-79
2023/08/23 07:11:08;;;;;;;20.27;8.90;;;20.80;99.90;;;;;;5086950;27;20177;-79
2023/08/23 07:13:36;;;;;;;14.23;7.20;;;20.90;99.90;;;;;;5098105;27;20050;-79
2023/08/23 07:16:02;;;;;;;16.10;7.28;;;21.00;99.90;;;;;;5080225;27;20107;-80
2023/08/23 07:18:29;;;;;;;17.83;7.28;;;21.10;99.90;;;;;;5099934;27;20055;-79
2023/08/23 07:20:55;;;;;;;13.05;7.07;;;21.20;99.90;;;;;;5099146;27;20051;-79
2023/08/23 07:23:24;;;;;;;10.65;6.72;;;21.40;99.90;;;;;;5115748;27;20411;-80
2023/08/23 07:25:50;;;;;;;13.90;6.07;;;21.50;99.90;;;;;;5082169;27;20047;-79
2023/08/23 07:28:16;;;;;;;11.27;6.40;;;21.60;99.90;;;;;;5099190;27;20520;-79
2023/08/23 07:30:56;;;;;;;10.85;6.25;;;21.70;99.90;;;;;;5099907;27;20043;-79
2023/08/23 07:33:25;;;;;;;10.50;5.60;;;21.80;99.90;;;;;;5100014;27;20118;-80
2023/08/23 07:35:58;;;;;;;12.10;5.75;;;21.90;99.90;;;;;;5069545;27;20035;-80
2023/08/23 07:38:24;;;;;;;14.57;6.45;;;22.00;99.90;;;;;;5111913;27;20047;-80
2023/08/23 07:40:50;;;;;;;16.15;5.90;;;22.20;99.90;;;;;;5098117;27;20047;-80
2023/08/23 07:43:22;;;;;;;12.10;5.63;;;22.30;99.90;;;;;;5089373;27;20039;-76
2023/08/23 07:45:54;;;;;;;13.30;5.20;;;22.40;99.90;;;;;;5099051;27;20486;-77
2023/08/23 07:48:20;;;;;;;9.88;5.63;;;22.40;99.50;;;;;;5098396;27;20046;-80
2023/08/23 07:50:50;;;;;;;12.65;5.18;;;22.50;99.20;;;;;;5102517;27;20498;-79
2023/08/23 07:53:16;;;;;;;12.15;6.05;;;22.50;98.70;;;;;;5066383;27;20468;-80
2023/08/23 07:55:42;;;;;;;12.48;5.32;;;22.40;98.60;;;;;;5096165;27;20405;-82
2023/08/23 07:58:08;;;;;;;11.35;4.68;;;22.50;98.60;;;;;;5098102;27;20047;-80
2023/08/23 08:00:34;;;;;;;12.63;4.72;;;22.60;98.50;;;;;;5068421;27;20040;-80
2023/08/23 08:03:02;;;;;;;10.00;5.18;;;22.60;98.10;;;;;;5070010;27;20109;-80
2023/08/23 08:05:28;;;;;;;10.68;4.65;;;22.60;97.70;;;;;;5097926;27;20047;-79
2023/08/23 08:07:54;;;;;;;13.13;5.35;;;22.60;97.30;;;;;;5098009;27;20092;-80
2023/08/23 08:10:20;;;;;;;12.40;5.35;;;22.50;97.10;;;;;;5080792;27;20066;-79
2023/08/23 08:12:45;;;;;;;9.32;5.20;;;22.60;97.10;;;;;;5093132;27;20108;-79
2023/08/23 08:15:11;;;;;;;15.75;5.30;;;22.40;97.10;;;;;;5093666;27;20077;-79
2023/08/23 08:17:37;;;;;;;12.02;5.38;;;22.40;97.20;;;;;;5078345;27;20035;-80
2023/08/23 08:20:05;;;;;;;11.05;5.10;;;22.40;97.00;;;;;;5098001;27;20142;-80
2023/08/23 08:22:31;;;;;;;11.68;5.53;;;22.40;96.90;;;;;;5097620;27;20390;-80
2023/08/23 08:24:58;;;;;;;12.10;5.57;;;22.50;96.90;;;;;;5094568;27;20050;-80
2023/08/23 08:27:27;;;;;;;11.32;5.30;;;22.60;96.80;;;;;;5096328;27;20179;-80
2023/08/23 08:29:52;;;;;;;11.75;4.45;;;22.70;96.50;;;;;;5081713;27;20126;-79
2023/08/23 08:32:18;;;;;;;11.07;4.97;;;22.80;96.10;;;;;;5098931;27;20095;-80
2023/08/23 08:34:44;;;;;;;9.27;4.95;;;23.00;95.60;;;;;;5093164;27;20066;-80
2023/08/23 08:37:11;;;;;;;12.85;5.28;;;23.00;95.20;;;;;;5097062;27;20172;-80
2023/08/23 08:39:36;;;;;;;10.63;5.30;;;23.00;95.00;;;;;;5095231;27;20055;-80
2023/08/23 08:42:03;;;;;;;13.68;4.80;;;23.00;94.80;;;;;;5078640;27;20070;-80
2023/08/23 08:44:29;;;;;;;10.88;5.80;;;23.00;94.90;;;;;;5095161;27;20043;-80
2023/08/23 08:46:55;;;;;;;11.77;5.28;;;23.20;94.60;;;;;;5085399;27;20188;-78
2023/08/23 08:49:21;;;;;;;11.20;5.65;;;23.50;93.90;;;;;;5098303;27;21088;-77
2023/08/23 08:51:47;;;;;;;13.20;5.68;;;23.80;93.10;;;;;;5097239;27;20481;-78
2023/08/23 08:54:17;;;;;;;12.40;5.95;;;23.90;92.30;;;;;;5096434;27;20123;-79
2023/08/23 08:56:51;;;;;;;12.55;6.30;;;24.00;91.80;;;;;;5095251;27;20604;-79
2023/08/23 08:59:17;;;;;;;13.02;5.72;;;24.00;91.10;;;;;;5093540;27;20047;-79
2023/08/23 09:01:48;;;;;;;12.27;6.05;;;24.30;91.10;;;;;;5113992;27;20360;-78
2023/08/23 09:04:14;;;;;;;13.63;5.93;;;24.10;90.60;;;;;;5097593;27;20040;-79
2023/08/23 09:06:41;;;;;;;14.52;6.25;;;24.00;90.20;;;;;;5113851;27;20671;-79
2023/08/23 09:09:07;;;;;;;12.27;5.43;;;24.10;90.10;;;;;;5082922;27;20086;-79
2023/08/23 09:11:34;;;;;;;10.73;5.57;;;24.10;90.20;;;;;;5094484;27;20070;-78
2023/08/23 09:14:15;;;;;;;9.68;4.60;;;24.10;89.70;;;;;;5092826;27;20074;-79
2023/08/23 09:16:42;;;;;;;12.55;5.60;;;24.10;87.90;;;;;;5092311;27;20054;-78
2023/08/23 09:19:11;;;;;;;11.00;4.90;;;24.00;89.40;;;;;;5100761;27;20055;-79
2023/08/23 09:21:51;;;;;;;13.20;5.97;;;24.00;89.20;;;;;;5080257;27;20039;-78
2023/08/23 09:24:18;;;;;;;11.35;6.22;;;24.00;89.10;;;;;;5096608;27;20054;-79
2023/08/23 09:26:44;;;;;;;13.23;6.13;;;24.00;89.50;;;;;;5086778;27;20082;-79
2023/08/23 09:29:11;;;;;;;13.50;6.15;;;24.10;89.20;;;;;;5092275;27;20126;-79
2023/08/23 09:31:38;;;;;;;10.50;5.15;;;24.20;88.30;;;;;;5097661;27;20040;-76
2023/08/23 09:34:47;;;;;;;9.45;4.50;;;24.40;87.70;;;;;;5091821;27;20075;-74
2023/08/23 09:37:37;;;;;;;10.63;3.83;;;24.60;85.40;;;;;;5098398;27;20043;-76
2023/08/23 09:40:50;;;;;;;6.93;2.90;;;24.70;84.30;;;;;;5076868;28;20056;-75
2023/08/23 09:43:51;;;;;;;7.50;2.90;;;25.10;78.80;;;;;;5008634;28;20066;-76
2023/08/23 09:46:33;;;;;;;9.68;2.80;;;25.40;73.40;;;;;;4997523;28;20060;-76
2023/08/23 09:50:22;;;;;;;8.23;2.50;;;25.60;71.00;;;;;;4993030;28;20067;-75
2023/08/23 09:53:18;;;;;;;7.07;2.40;;;25.70;66.00;;;;;;5010679;28;20176;-74
2023/08/23 09:56:18;;;;;;;9.05;2.63;;;25.90;67.60;;;;;;4987002;28;20132;-77
2023/08/23 10:02:14;;;;;;;6.43;2.25;;;26.20;62.20;;;;;;5004313;28;20057;-73
2023/08/23 10:04:41;;;;;;;8.57;2.78;;;26.40;60.00;;;;;;4985245;28;20060;-75
2023/08/23 10:07:09;;;;;;;7.22;2.47;;;26.50;59.00;;;;;;5057923;27;20451;-76
2023/08/23 10:09:36;;;;;;;6.88;2.25;;;26.70;56.90;;;;;;5080033;27;20047;-75
2023/08/23 10:12:05;;;;;;;5.30;1.70;;;26.80;52.90;;;;;;5075368;27;21720;-74
2023/08/23 10:14:46;;;;;;;7.35;2.17;;;27.00;48.80;;;;;;5093496;27;20046;-75
2023/08/23 10:17:18;;;;;;;5.80;1.90;;;27.10;48.00;;;;;;5067433;27;20497;-75
2023/08/23 10:20:07;;;;;;;7.07;2.50;;;27.20;42.50;;;;;;5080317;27;20051;-76
2023/08/23 10:22:34;;;;;;;6.57;2.47;;;27.30;38.00;;;;;;5079060;27;20050;-76
2023/08/23 10:25:32;;;;;;;6.18;2.20;;;27.60;42.00;;;;;;5086256;27;20520;-77
2023/08/23 10:28:57;;;;;;;6.10;2.20;;;27.90;38.80;;;;;;5109222;27;20058;-77
2023/08/23 10:31:53;;;;;;;4.07;1.83;;;28.20;24.80;;;;;;5096946;27;20571;-75
2023/08/23 10:34:25;;;;;;;6.85;2.08;;;28.20;18.60;;;;;;5091600;27;20332;-75
2023/08/23 10:36:55;;;;;;;6.43;2.00;;;28.00;20.10;;;;;;5075583;27;20601;-77
2023/08/23 10:39:23;;;;;;;5.35;1.58;;;27.80;21.60;;;;;;5100133;27;20039;-75
2023/08/23 10:41:56;;;;;;;5.28;1.60;;;27.60;21.50;;;;;;5094225;27;20055;-74
2023/08/23 10:44:23;;;;;;;5.22;1.65;;;27.50;15.40;;;;;;5064123;27;20069;-76
2023/08/23 10:46:51;;;;;;;6.45;1.80;;;27.60;16.20;;;;;;5090292;27;20051;-75
2023/08/23 10:49:21;;;;;;;4.05;1.30;;;27.60;11.50;;;;;;5092282;27;20042;-77
2023/08/23 10:51:47;;;;;;;5.10;1.30;;;27.80;3.80;;;;;;5065781;27;20104;-76
2023/08/23 10:54:14;;;;;;;4.07;1.35;;;27.90;1.00;;;;;;5077342;27;20469;-79
2023/08/23 10:56:40;;;;;;;3.33;1.20;;;28.00;1.00;;;;;;5079462;27;20043;-77
2023/08/23 10:59:07;;;;;;;5.05;1.30;;;28.10;1.00;;;;;;5095261;27;20133;-82
2023/08/23 11:01:34;;;;;;;3.95;1.33;;;28.00;1.00;;;;;;5093025;27;20043;-81
2023/08/23 11:04:05;;;;;;;2.92;0.95;;;28.10;1.00;;;;;;5091503;27;20127;-76
2023/08/23 11:06:32;;;;;;;2.97;1.38;;;28.20;1.00;;;;;;5074837;27;20043;-73
2023/08/23 11:08:58;;;;;;;3.75;1.50;;;28.30;1.00;;;;;;5094075;27;20043;-78
2023/08/23 11:11:30;;;;;;;3.72;1.45;;;28.30;1.00;;;;;;5090052;27;20158;-77
2023/08/23 11:13:57;;;;;;;3.28;1.30;;;28.20;1.00;;;;;;5091918;27;20413;-77
2023/08/23 11:16:23;;;;;;;3.80;1.30;;;28.00;1.00;;;;;;5093847;27;20289;-78
2023/08/23 11:18:50;;;;;;;5.53;1.60;;;28.00;1.00;;;;;;5094522;27;20047;-76
2023/08/23 11:21:17;;;;;;;3.22;1.40;;;27.70;1.00;;;;;;5095234;27;20047;-78
2023/08/23 11:23:42;;;;;;;7.28;1.50;;;27.40;1.00;;;;;;5079320;27;20040;-75
2023/08/23 11:26:08;;;;;;;2.78;1.20;;;27.20;1.00;;;;;;5112302;27;20453;-77
2023/08/23 11:28:34;;;;;;;7.32;1.50;;;27.00;1.00;;;;;;5060405;27;20050;-80
2023/08/23 11:31:06;;;;;;;3.72;1.50;;;26.90;1.00;;;;;;5098898;27;20107;-77
2023/08/23 11:33:33;;;;;;;4.30;1.48;;;26.90;1.00;;;;;;5090112;27;20052;-79
2023/08/23 11:36:00;;;;;;;3.60;2.15;;;27.10;1.00;;;;;;5088214;27;20043;-76
2023/08/23 11:38:27;;;;;;;5.38;2.30;;;26.90;1.00;;;;;;5081082;27;20054;-85
2023/08/23 11:40:53;;;;;;;5.93;2.15;;;26.80;4.50;;;;;;5062120;27;20239;-77
2023/08/23 11:43:19;;;;;;;6.00;2.65;;;26.90;7.80;;;;;;5114545;27;20600;-75
2023/08/23 11:45:48;;;;;;;6.38;2.08;;;26.90;4.60;;;;;;5099599;27;20474;-74
2023/08/23 11:48:14;;;;;;;4.97;2.00;;;26.90;8.70;;;;;;5096114;27;20055;-73
2023/08/23 11:50:40;;;;;;;6.40;2.40;;;27.00;12.60;;;;;;5094937;27;20517;-74
2023/08/23 11:53:06;;;;;;;4.50;2.03;;;27.30;8.40;;;;;;5097768;27;20047;-74
2023/08/23 11:55:34;;;;;;;5.25;1.83;;;27.60;3.30;;;;;;5067931;27;20043;-73
2023/08/23 11:58:02;;;;;;;4.60;1.85;;;27.70;1.00;;;;;;5096200;27;20048;-73
2023/08/23 12:00:27;;;;;;;5.43;1.80;;;28.00;1.00;;;;;;5096562;27;20051;-73
2023/08/23 12:02:53;;;;;;;5.57;1.70;;;28.10;1.00;;;;;;5082350;27;20051;-75
2023/08/23 12:05:19;;;;;;;6.05;1.48;;;28.20;1.00;;;;;;5095254;28;20047;-74
2023/08/23 12:07:48;;;;;;;6.75;1.20;;;28.10;1.00;;;;;;5081176;27;20156;-74
2023/08/23 12:10:14;;;;;;;2.97;1.00;;;27.90;1.00;;;;;;5103421;27;20043;-74
2023/08/23 12:12:40;;;;;;;4.43;1.23;;;27.90;1.00;;;;;;5098499;27;20070;-75
2023/08/23 12:15:06;;;;;;;2.92;0.90;;;27.60;1.00;;;;;;5080954;27;20035;-74
2023/08/23 12:17:34;;;;;;;3.20;0.98;;;27.40;1.00;;;;;;5094078;27;20043;-75
2023/08/23 12:19:59;;;;;;;2.08;0.90;;;27.40;1.00;;;;;;5085451;27;20070;-75
2023/08/23 12:22:25;;;;;;;3.60;0.70;;;27.60;1.00;;;;;;5097116;27;20800;-75
2023/08/23 12:24:51;;;;;;;2.13;0.85;;;27.40;1.00;;;;;;5095517;27;20135;-75
2023/08/23 12:27:17;;;;;;;2.53;0.70;;;27.20;1.00;;;;;;5095678;27;20084;-75
2023/08/23 12:29:43;;;;;;;2.22;0.68;;;27.30;1.00;;;;;;5094405;27;20055;-75
2023/08/23 12:32:09;;;;;;;2.90;0.80;;;27.50;1.00;;;;;;5091970;27;20056;-74
2023/08/23 12:34:35;;;;;;;2.17;0.70;;;27.40;99.90;;;;;;5063564;27;20750;-75
2023/08/23 12:37:01;;;;;;;2.60;0.70;;;27.40;1.00;;;;;;5112426;27;20047;-75
2023/08/23 12:39:27;;;;;;;3.33;0.80;;;27.40;1.00;;;;;;5111655;27;20044;-75
2023/08/23 12:41:53;;;;;;;2.55;0.85;;;27.50;1.00;;;;;;5111727;27;20418;-75
2023/08/23 12:44:19;;;;;;;3.00;0.85;;;27.60;1.00;;;;;;5094479;27;20051;-74
2023/08/23 12:46:45;;;;;;;4.07;1.02;;;27.40;1.00;;;;;;5092309;27;20090;-74
2023/08/23 12:49:13;;;;;;;3.20;0.85;;;27.00;1.00;;;;;;5091376;27;20126;-76
2023/08/23 12:51:40;;;;;;;3.28;0.75;;;26.80;1.00;;;;;;5069777;27;20043;-75
2023/08/23 12:54:06;;;;;;;2.63;0.85;;;26.70;1.00;;;;;;5094081;27;20055;-75